Terminal Aerodrome Forecast
Issued by NWS Pueblo, CO

Home | Current Version | Previous Version | Text Only | Print | Product List | Glossary On
Versions: 1 2 3 4 5 6 7 8 9 10 11 12 13 14 15 16 17 18 19 20 21 22 23
000
FTUS45 KPUB 271137
TAFALS
TAF
KALS 271137Z 2712/2812 VRB05KT P6SM BKN120
     FM271700 23009KT P6SM SCT120 SCT200
     FM272100 23015G25KT P6SM SCT100 BKN150
     FM280100 23007KT P6SM SCT100 BKN150=

USA.gov is the U.S. government's official web portal to all federal, state and local government web resources and services.